sensor_id;sensor_type;location;lat;lon;timestamp;P1;durP1;ratioP1;P2;durP2;ratioP2
57303;SDS011;43150;50.986;18.208;2022-11-06T00:02:58;37.10;;;30.90;;
57303;SDS011;43150;50.986;18.208;2022-11-06T00:13:00;53.30;;;34.40;;
57303;SDS011;43150;50.986;18.208;2022-11-06T00:22:42;33.00;;;27.90;;
57303;SDS011;43150;50.986;18.208;2022-11-06T00:32:23;48.10;;;29.70;;
57303;SDS011;43150;50.986;18.208;2022-11-06T00:42:05;32.20;;;28.80;;
57303;SDS011;43150;50.986;18.208;2022-11-06T00:51:47;33.00;;;24.10;;
57303;SDS011;43150;50.986;18.208;2022-11-06T01:01:36;35.70;;;24.80;;
57303;SDS011;43150;50.986;18.208;2022-11-06T01:11:22;21.90;;;16.70;;
57303;SDS011;43150;50.986;18.208;2022-11-06T01:21:11;22.60;;;15.30;;
57303;SDS011;43150;50.986;18.208;2022-11-06T01:31:05;48.90;;;21.80;;
57303;SDS011;43150;50.986;18.208;2022-11-06T01:40:54;53.60;;;24.80;;
57303;SDS011;43150;50.986;18.208;2022-11-06T01:50:51;60.30;;;24.00;;
57303;SDS011;43150;50.986;18.208;2022-11-06T02:00:35;20.70;;;16.00;;
57303;SDS011;43150;50.986;18.208;2022-11-06T02:10:17;24.60;;;14.30;;
57303;SDS011;43150;50.986;18.208;2022-11-06T02:20:48;41.50;;;20.50;;
57303;SDS011;43150;50.986;18.208;2022-11-06T02:30:23;34.10;;;16.20;;
57303;SDS011;43150;50.986;18.208;2022-11-06T02:40:14;22.50;;;18.60;;
57303;SDS011;43150;50.986;18.208;2022-11-06T02:50:06;31.20;;;14.20;;
57303;SDS011;43150;50.986;18.208;2022-11-06T03:00:18;27.00;;;15.90;;
57303;SDS011;43150;50.986;18.208;2022-11-06T03:10:10;20.90;;;12.80;;
57303;SDS011;43150;50.986;18.208;2022-11-06T03:19:59;58.90;;;18.60;;
57303;SDS011;43150;50.986;18.208;2022-11-06T03:30:07;21.80;;;14.40;;
57303;SDS011;43150;50.986;18.208;2022-11-06T03:39:51;31.30;;;13.40;;
57303;SDS011;43150;50.986;18.208;2022-11-06T03:49:40;26.40;;;13.30;;
57303;SDS011;43150;50.986;18.208;2022-11-06T03:59:35;12.90;;;11.40;;
57303;SDS011;43150;50.986;18.208;2022-11-06T04:09:20;30.50;;;13.70;;
57303;SDS011;43150;50.986;18.208;2022-11-06T04:19:46;25.10;;;13.10;;
57303;SDS011;43150;50.986;18.208;2022-11-06T04:40:08;16.30;;;13.30;;
57303;SDS011;43150;50.986;18.208;2022-11-06T04:49:55;25.00;;;16.70;;
57303;SDS011;43150;50.986;18.208;2022-11-06T04:59:43;18.50;;;14.30;;
57303;SDS011;43150;50.986;18.208;2022-11-06T05:09:29;144.70;;;18.80;;
57303;SDS011;43150;50.986;18.208;2022-11-06T05:19:17;25.90;;;17.30;;
57303;SDS011;43150;50.986;18.208;2022-11-06T05:29:24;24.60;;;16.20;;
57303;SDS011;43150;50.986;18.208;2022-11-06T05:39:16;35.30;;;17.20;;
57303;SDS011;43150;50.986;18.208;2022-11-06T05:49:08;19.90;;;13.20;;
57303;SDS011;43150;50.986;18.208;2022-11-06T05:58:51;16.70;;;13.70;;
57303;SDS011;43150;50.986;18.208;2022-11-06T06:08:42;19.60;;;12.60;;
57303;SDS011;43150;50.986;18.208;2022-11-06T06:18:35;30.40;;;23.00;;
57303;SDS011;43150;50.986;18.208;2022-11-06T06:28:28;8.00;;;7.30;;
57303;SDS011;43150;50.986;18.208;2022-11-06T06:38:22;9.90;;;7.40;;
57303;SDS011;43150;50.986;18.208;2022-11-06T06:48:04;10.70;;;9.20;;
57303;SDS011;43150;50.986;18.208;2022-11-06T06:57:59;24.80;;;15.90;;
57303;SDS011;43150;50.986;18.208;2022-11-06T07:07:44;14.10;;;12.70;;
57303;SDS011;43150;50.986;18.208;2022-11-06T07:17:41;10.10;;;9.20;;
57303;SDS011;43150;50.986;18.208;2022-11-06T07:27:30;10.80;;;9.20;;
57303;SDS011;43150;50.986;18.208;2022-11-06T07:37:16;12.00;;;10.80;;
57303;SDS011;43150;50.986;18.208;2022-11-06T07:47:10;11.70;;;8.20;;
57303;SDS011;43150;50.986;18.208;2022-11-06T07:57:21;28.40;;;19.70;;
57303;SDS011;43150;50.986;18.208;2022-11-06T08:14:50;17.70;;;14.20;;
57303;SDS011;43150;50.986;18.208;2022-11-06T08:25:19;20.60;;;12.90;;
57303;SDS011;43150;50.986;18.208;2022-11-06T08:35:02;12.50;;;11.30;;
57303;SDS011;43150;50.986;18.208;2022-11-06T08:44:57;17.80;;;12.10;;
57303;SDS011;43150;50.986;18.208;2022-11-06T09:02:11;35.60;;;8.80;;
57303;SDS011;43150;50.986;18.208;2022-11-06T09:12:10;26.00;;;10.30;;
57303;SDS011;43150;50.986;18.208;2022-11-06T09:22:08;26.40;;;11.20;;
57303;SDS011;43150;50.986;18.208;2022-11-06T09:31:56;3.80;;;3.50;;
57303;SDS011;43150;50.986;18.208;2022-11-06T09:41:52;21.50;;;9.30;;
57303;SDS011;43150;50.986;18.208;2022-11-06T10:01:55;12.10;;;8.40;;
57303;SDS011;43150;50.986;18.208;2022-11-06T10:11:50;12.40;;;8.90;;
57303;SDS011;43150;50.986;18.208;2022-11-06T10:56:10;7.90;;;6.80;;
57303;SDS011;43150;50.986;18.208;2022-11-06T11:06:00;3.00;;;2.70;;
57303;SDS011;43150;50.986;18.208;2022-11-06T11:15:46;4.80;;;4.40;;
57303;SDS011;43150;50.986;18.208;2022-11-06T11:32:45;3.80;;;3.50;;
57303;SDS011;43150;50.986;18.208;2022-11-06T11:42:29;3.70;;;3.40;;
57303;SDS011;43150;50.986;18.208;2022-11-06T11:52:16;5.20;;;4.10;;
57303;SDS011;43150;50.986;18.208;2022-11-06T12:09:18;4.70;;;4.20;;
57303;SDS011;43150;50.986;18.208;2022-11-06T12:19:00;8.50;;;4.10;;
57303;SDS011;43150;50.986;18.208;2022-11-06T12:28:42;5.00;;;3.50;;
57303;SDS011;43150;50.986;18.208;2022-11-06T12:58:24;6.50;;;3.10;;
57303;SDS011;43150;50.986;18.208;2022-11-06T13:18:12;3.90;;;2.90;;
57303;SDS011;43150;50.986;18.208;2022-11-06T13:37:57;6.50;;;2.20;;
57303;SDS011;43150;50.986;18.208;2022-11-06T14:07:24;12.80;;;4.50;;
57303;SDS011;43150;50.986;18.208;2022-11-06T14:26:53;9.30;;;4.10;;
57303;SDS011;43150;50.986;18.208;2022-11-06T14:36:38;10.90;;;3.70;;
57303;SDS011;43150;50.986;18.208;2022-11-06T14:46:24;3.60;;;3.30;;
57303;SDS011;43150;50.986;18.208;2022-11-06T14:56:07;4.60;;;3.50;;
57303;SDS011;43150;50.986;18.208;2022-11-06T15:05:56;12.40;;;6.80;;
57303;SDS011;43150;50.986;18.208;2022-11-06T15:15:57;5.60;;;4.00;;
57303;SDS011;43150;50.986;18.208;2022-11-06T15:25:45;10.50;;;5.70;;
57303;SDS011;43150;50.986;18.208;2022-11-06T15:35:30;9.80;;;7.80;;
57303;SDS011;43150;50.986;18.208;2022-11-06T15:54:57;17.10;;;10.40;;
57303;SDS011;43150;50.986;18.208;2022-11-06T16:04:38;9.40;;;6.90;;
57303;SDS011;43150;50.986;18.208;2022-11-06T16:14:24;40.90;;;24.40;;
57303;SDS011;43150;50.986;18.208;2022-11-06T16:24:10;27.80;;;21.40;;
57303;SDS011;43150;50.986;18.208;2022-11-06T16:54:00;12.70;;;7.70;;
57303;SDS011;43150;50.986;18.208;2022-11-06T17:03:47;38.40;;;26.50;;
57303;SDS011;43150;50.986;18.208;2022-11-06T17:13:32;30.50;;;23.20;;
57303;SDS011;43150;50.986;18.208;2022-11-06T17:23:21;39.90;;;23.70;;
57303;SDS011;43150;50.986;18.208;2022-11-06T17:33:09;24.40;;;21.70;;
57303;SDS011;43150;50.986;18.208;2022-11-06T17:42:52;51.60;;;36.20;;
57303;SDS011;43150;50.986;18.208;2022-11-06T17:52:33;84.00;;;45.10;;
57303;SDS011;43150;50.986;18.208;2022-11-06T18:09:31;21.10;;;18.20;;
57303;SDS011;43150;50.986;18.208;2022-11-06T18:19:14;18.00;;;10.90;;
57303;SDS011;43150;50.986;18.208;2022-11-06T18:28:57;20.00;;;16.80;;
57303;SDS011;43150;50.986;18.208;2022-11-06T18:38:41;27.60;;;17.00;;
57303;SDS011;43150;50.986;18.208;2022-11-06T18:55:44;22.50;;;17.80;;
57303;SDS011;43150;50.986;18.208;2022-11-06T19:05:26;15.90;;;14.20;;
57303;SDS011;43150;50.986;18.208;2022-11-06T19:15:09;26.20;;;20.20;;
57303;SDS011;43150;50.986;18.208;2022-11-06T19:24:53;43.60;;;23.80;;
57303;SDS011;43150;50.986;18.208;2022-11-06T19:34:35;33.00;;;26.20;;
57303;SDS011;43150;50.986;18.208;2022-11-06T19:44:22;45.70;;;28.50;;
57303;SDS011;43150;50.986;18.208;2022-11-06T19:54:07;73.00;;;39.10;;
57303;SDS011;43150;50.986;18.208;2022-11-06T20:03:52;58.20;;;36.10;;
57303;SDS011;43150;50.986;18.208;2022-11-06T20:13:34;47.20;;;33.40;;
57303;SDS011;43150;50.986;18.208;2022-11-06T20:23:19;29.70;;;25.30;;
57303;SDS011;43150;50.986;18.208;2022-11-06T20:33:01;39.90;;;26.90;;
57303;SDS011;43150;50.986;18.208;2022-11-06T20:42:42;29.90;;;26.80;;
57303;SDS011;43150;50.986;18.208;2022-11-06T20:52:24;32.60;;;24.70;;
57303;SDS011;43150;50.986;18.208;2022-11-06T21:02:08;46.90;;;36.60;;
57303;SDS011;43150;50.986;18.208;2022-11-06T21:11:54;47.30;;;31.10;;
57303;SDS011;43150;50.986;18.208;2022-11-06T21:21:36;36.90;;;26.40;;
57303;SDS011;43150;50.986;18.208;2022-11-06T21:31:24;46.10;;;31.20;;
57303;SDS011;43150;50.986;18.208;2022-11-06T21:48:22;35.40;;;26.20;;
57303;SDS011;43150;50.986;18.208;2022-11-06T21:58:23;45.40;;;29.60;;
57303;SDS011;43150;50.986;18.208;2022-11-06T22:08:05;44.40;;;29.50;;
57303;SDS011;43150;50.986;18.208;2022-11-06T22:17:50;48.40;;;25.80;;
57303;SDS011;43150;50.986;18.208;2022-11-06T22:27:31;28.60;;;24.30;;
57303;SDS011;43150;50.986;18.208;2022-11-06T22:37:13;39.50;;;26.70;;
57303;SDS011;43150;50.986;18.208;2022-11-06T22:46:55;27.40;;;20.40;;
57303;SDS011;43150;50.986;18.208;2022-11-06T22:56:37;45.50;;;25.60;;
57303;SDS011;43150;50.986;18.208;2022-11-06T23:06:23;20.30;;;16.30;;
57303;SDS011;43150;50.986;18.208;2022-11-06T23:16:07;24.30;;;15.90;;
57303;SDS011;43150;50.986;18.208;2022-11-06T23:25:49;37.80;;;27.30;;
57303;SDS011;43150;50.986;18.208;2022-11-06T23:35:30;38.30;;;24.60;;
57303;SDS011;43150;50.986;18.208;2022-11-06T23:45:13;35.60;;;26.10;;
57303;SDS011;43150;50.986;18.208;2022-11-06T23:55:14;35.30;;;24.00;;
